Time;durP1;ratioP1;P1;durP2;ratioP2;P2;SDS_P1;SDS_P2;PMS_P1;PMS_P2;Temp;Humidity;BMP_temperature;BMP_pressure;BME280_temperature;BME280_humidity;BME280_pressure;Samples;Min_cycle;Max_cycle;Signal;HPM_P1;HPM_P2
2023/03/26 09:36:04;;;;;;;13.70;3.60;;;;;;;7.97;100.00;99690.56;6132181;22;2087944;-55
2023/03/26 09:38:42;;;;;;;14.82;3.05;;;;;;;7.95;100.00;99692.56;6276237;22;20046;-56
2023/03/26 09:44:29;;;;;;;15.68;2.70;;;;;;;8.11;100.00;99681.16;5109936;27;20374;-58
2023/03/26 09:47:37;;;;;;;13.45;3.33;;;;;;;8.14;100.00;99685.31;5093996;28;20717;-55
2023/03/26 09:50:43;;;;;;;11.10;2.78;;;;;;;8.26;100.00;99676.06;5101393;28;20141;-55
2023/03/26 09:53:41;;;;;;;14.55;2.90;;;;;;;8.32;100.00;99671.94;5105150;28;20036;-53
2023/03/26 09:59:08;;;;;;;14.38;2.92;;;;;;;8.13;100.00;99668.63;5119551;27;20901;-53
2023/03/26 10:02:06;;;;;;;9.88;2.95;;;;;;;7.98;100.00;99665.78;5102238;28;20693;-54
2023/03/26 10:04:59;;;;;;;12.52;3.08;;;;;;;7.84;100.00;99667.28;5096424;28;20063;-54
2023/03/26 10:07:41;;;;;;;11.52;2.92;;;;;;;8.00;100.00;99670.91;5100558;28;20067;-54
2023/03/26 10:10:33;;;;;;;12.05;2.80;;;;;;;8.10;100.00;99668.16;5104805;28;20050;-53
2023/03/26 10:13:27;;;;;;;12.20;2.83;;;;;;;7.98;100.00;99662.34;5104723;28;20048;-53
2023/03/26 10:16:30;;;;;;;7.97;2.53;;;;;;;7.94;100.00;99653.09;5094275;28;20123;-53
2023/03/26 10:19:36;;;;;;;10.73;2.60;;;;;;;8.04;99.45;99649.31;5083269;28;20047;-53
2023/03/26 10:22:21;;;;;;;12.30;2.70;;;;;;;8.08;100.00;99652.44;5107824;28;20064;-53
2023/03/26 10:25:21;;;;;;;9.70;3.30;;;;;;;8.18;100.00;99647.00;5103823;28;20054;-56
2023/03/26 10:28:14;;;;;;;12.80;3.00;;;;;;;8.23;100.00;99652.63;5108519;28;20058;-51
2023/03/26 10:31:13;;;;;;;17.67;4.50;;;;;;;8.23;100.00;99645.50;5098379;28;20058;-54
2023/03/26 10:34:06;;;;;;;9.63;2.40;;;;;;;8.17;99.72;99640.91;5092313;28;20035;-54
2023/03/26 10:36:37;;;;;;;60.42;24.15;;;;;;;8.11;100.00;99643.38;5103182;28;20040;-51
2023/03/26 10:39:34;;;;;;;33.42;14.43;;;;;;;8.23;100.00;99636.75;5104544;28;20496;-54
2023/03/26 10:42:20;;;;;;;36.88;11.90;;;;;;;8.30;100.00;99631.66;5100124;28;20105;-55
2023/03/26 10:45:08;;;;;;;13.10;3.28;;;;;;;8.54;99.58;99633.47;5093219;28;20045;-58
2023/03/26 10:48:15;;;;;;;12.63;3.20;;;;;;;8.62;99.22;99631.63;5097451;28;20078;-58
2023/03/26 10:51:05;;;;;;;8.32;2.30;;;;;;;8.67;99.45;99625.84;5098908;28;20047;-55
2023/03/26 10:53:42;;;;;;;12.27;2.92;;;;;;;8.57;100.00;99623.38;5105277;28;20040;-55
2023/03/26 10:56:34;;;;;;;13.80;2.60;;;;;;;8.62;98.58;99629.00;5100576;28;20561;-55
2023/03/26 10:59:07;;;;;;;10.43;2.72;;;;;;;8.47;97.87;99622.72;5083253;28;20462;-54
2023/03/26 11:04:53;;;;;;;11.52;2.95;;;;;;;8.52;100.00;99619.59;5116187;27;20371;-57
2023/03/26 11:10:23;;;;;;;11.70;3.05;;;;;;;8.61;99.79;99615.94;5116831;27;20406;-56
2023/03/26 11:13:02;;;;;;;10.30;2.80;;;;;;;8.64;98.46;99618.22;5105261;28;20040;-56
2023/03/26 11:15:40;;;;;;;9.85;3.25;;;;;;;8.76;99.87;99610.78;5101226;28;20111;-57
2023/03/26 11:18:19;;;;;;;11.82;3.20;;;;;;;8.79;99.58;99615.72;5098841;28;20044;-56
2023/03/26 11:21:00;;;;;;;10.70;2.70;;;;;;;8.65;96.95;99615.41;5102261;28;20493;-55
2023/03/26 11:23:39;;;;;;;12.18;3.70;;;;;;;8.74;97.30;99605.66;5084359;28;20418;-56
2023/03/26 11:29:24;;;;;;;11.02;2.67;;;;;;;8.65;99.62;99615.41;5141891;27;20397;-55
2023/03/26 11:32:20;;;;;;;7.05;2.35;;;;;;;8.71;99.01;99608.63;5120266;28;20059;-54
2023/03/26 11:37:55;;;;;;;23.45;8.43;;;;;;;8.88;98.48;99601.50;5105521;28;20414;-56
2023/03/26 11:40:29;;;;;;;7.35;2.35;;;;;;;9.02;98.90;99599.94;5046688;28;20052;-56
2023/03/26 11:43:01;;;;;;;8.60;2.30;;;;;;;9.06;97.68;99601.25;5091825;28;20058;-56
2023/03/26 11:45:35;;;;;;;7.13;2.10;;;;;;;8.91;96.08;99597.66;5097975;28;20086;-57
2023/03/26 11:48:08;;;;;;;7.20;2.33;;;;;;;8.49;95.04;99602.25;5082569;28;20496;-57
2023/03/26 11:50:43;;;;;;;5.80;2.10;;;;;;;8.60;96.97;99601.06;5067637;28;20561;-55
2023/03/26 11:53:13;;;;;;;26.88;8.35;;;;;;;8.56;96.71;99594.47;5084537;28;20043;-50
2023/03/26 11:55:45;;;;;;;18.50;5.05;;;;;;;8.51;96.55;99604.72;5067694;28;20177;-52
2023/03/26 11:58:21;;;;;;;;;;;;;;;8.63;95.16;99603.38;5037827;28;20134;-50
2023/03/26 12:00:52;;;;;;;7.50;2.20;;;;;;;8.73;93.76;99596.09;5096436;28;19929;-56
2023/03/26 12:03:21;;;;;;;9.10;3.47;;;;;;;8.77;93.66;99605.31;5100583;28;20050;-56
2023/03/26 12:05:56;;;;;;;6.95;2.10;;;;;;;8.67;95.23;99609.16;5083713;28;20042;-56
2023/03/26 12:08:42;;;;;;;6.93;2.00;;;;;;;8.82;97.14;99603.00;5060845;28;20052;-56
2023/03/26 12:11:14;;;;;;;7.38;2.20;;;;;;;8.99;94.91;99602.94;5083245;28;20033;-56
2023/03/26 12:13:51;;;;;;;9.15;2.33;;;;;;;8.91;95.23;99601.13;5082656;28;20101;-56
2023/03/26 12:16:20;;;;;;;8.10;2.50;;;;;;;9.12;94.78;99608.50;5101208;28;20045;-57
2023/03/26 12:19:16;;;;;;;7.40;2.30;;;;;;;8.58;93.66;99600.41;5078224;28;20191;-57
2023/03/26 12:21:47;;;;;;;6.30;2.38;;;;;;;8.50;94.33;99603.91;5055621;28;20078;-57
2023/03/26 12:24:32;;;;;;;7.45;2.40;;;;;;;8.57;95.24;99602.22;5036541;28;20057;-57
2023/03/26 12:27:19;;;;;;;7.10;2.35;;;;;;;8.62;95.74;99599.91;5095047;28;20043;-57
2023/03/26 12:29:53;;;;;;;7.45;2.20;;;;;;;8.62;98.88;99609.66;5068543;28;20511;-56
2023/03/26 12:32:20;;;;;;;9.88;2.45;;;;;;;8.23;96.62;99597.94;5075296;28;20123;-55
2023/03/26 12:34:49;;;;;;;8.02;2.47;;;;;;;8.09;98.52;99606.53;5078278;28;20266;-56
2023/03/26 12:37:37;;;;;;;10.40;3.15;;;;;;;8.24;100.00;99604.91;5092182;28;20107;-55
2023/03/26 12:40:10;;;;;;;7.07;2.35;;;;;;;8.19;100.00;99606.41;5122719;28;20043;-55
2023/03/26 12:42:51;;;;;;;6.57;2.22;;;;;;;8.37;100.00;99614.97;5099400;28;20090;-56
2023/03/26 12:45:22;;;;;;;7.95;2.53;;;;;;;8.54;100.00;99609.69;5075181;28;20052;-58
2023/03/26 12:47:51;;;;;;;9.57;2.53;;;;;;;8.41;100.00;99608.34;5094306;28;20044;-56
2023/03/26 12:50:22;;;;;;;7.40;2.53;;;;;;;8.30;98.11;99610.50;5065044;28;20048;-56
2023/03/26 12:53:01;;;;;;;7.40;2.13;;;;;;;8.37;98.18;99617.59;5059926;28;20052;-57
2023/03/26 12:55:50;;;;;;;7.93;2.05;;;;;;;8.56;98.43;99611.16;5085766;28;20641;-57
2023/03/26 12:58:37;;;;;;;7.20;2.03;;;;;;;8.59;96.67;99616.09;5102438;28;20054;-57
2023/03/26 13:01:18;;;;;;;11.25;3.40;;;;;;;8.98;98.94;99619.78;5038788;28;20048;-56
2023/03/26 13:04:25;;;;;;;6.63;1.90;;;;;;;8.89;96.85;99613.69;5063080;28;20047;-56
2023/03/26 13:07:00;;;;;;;6.38;1.75;;;;;;;8.93;94.21;99617.69;5080815;28;20071;-56
2023/03/26 13:09:39;;;;;;;7.82;1.95;;;;;;;9.31;93.64;99620.47;5073315;28;20488;-56
2023/03/26 13:12:18;;;;;;;5.20;1.85;;;;;;;9.64;91.31;99628.25;5084294;28;20046;-56
2023/03/26 13:14:57;;;;;;;11.65;3.60;;;;;;;9.92;89.81;99625.09;5089699;28;20043;-53
2023/03/26 13:17:50;;;;;;;6.63;1.98;;;;;;;10.35;87.20;99623.59;5046566;28;20041;-57
2023/03/26 13:20:57;;;;;;;6.30;1.95;;;;;;;10.94;84.86;99625.47;5086893;28;20051;-56
2023/03/26 13:29:33;;;;;;;4.93;1.88;;;;;;;11.65;81.82;99635.50;5125602;27;20127;-57
2023/03/26 13:32:17;;;;;;;6.30;1.83;;;;;;;11.37;81.05;99637.22;5065231;28;20127;-57
2023/03/26 13:35:23;;;;;;;4.43;1.60;;;;;;;10.75;82.61;99636.59;5103996;28;20131;-56
2023/03/26 13:38:03;;;;;;;6.38;1.73;;;;;;;10.50;83.84;99628.91;5077321;28;20097;-56
2023/03/26 13:43:53;;;;;;;5.80;1.60;;;;;;;9.87;86.61;99635.38;5092334;27;20370;-55
2023/03/26 13:46:32;;;;;;;5.53;1.90;;;;;;;9.51;88.05;99639.38;5092342;28;20076;-56
2023/03/26 13:49:07;;;;;;;5.35;2.00;;;;;;;9.46;88.34;99635.63;5114365;28;20114;-56
2023/03/26 13:51:57;;;;;;;4.93;1.88;;;;;;;9.07;89.32;99639.09;5079208;28;20036;-56
2023/03/26 13:54:39;;;;;;;4.15;1.65;;;;;;;8.66;89.13;99616.25;5090044;28;20537;-58
2023/03/26 13:57:15;;;;;;;7.15;1.70;;;;;;;8.93;90.52;99630.06;5093611;28;20121;-56
2023/03/26 13:59:49;;;;;;;5.07;1.70;;;;;;;8.97;89.68;99640.13;5098840;28;20157;-56
2023/03/26 14:02:30;;;;;;;5.57;1.75;;;;;;;9.22;88.83;99640.88;5103908;28;20043;-55
2023/03/26 14:05:11;;;;;;;5.60;1.80;;;;;;;9.33;89.28;99644.13;5118521;27;20353;-56
2023/03/26 14:07:46;;;;;;;6.13;1.90;;;;;;;9.38;90.23;99647.88;5103208;28;20054;-56
2023/03/26 14:10:20;;;;;;;4.43;1.70;;;;;;;9.21;90.50;99638.41;5097094;28;20588;-56
2023/03/26 14:13:02;;;;;;;7.80;2.45;;;;;;;9.20;90.42;99645.50;5107563;28;20047;-56
2023/03/26 14:15:39;;;;;;;6.55;2.40;;;;;;;9.20;88.32;99645.50;5092885;27;20044;-53
2023/03/26 14:18:34;;;;;;;8.00;2.22;;;;;;;9.25;88.00;99650.28;5086324;28;20036;-53
2023/03/26 14:21:26;;;;;;;10.68;4.15;;;;;;;9.37;88.46;99645.44;5114593;28;20167;-54
2023/03/26 14:24:21;;;;;;;5.18;1.92;;;;;;;9.32;87.82;99651.25;5117999;28;20066;-50
2023/03/26 14:27:04;;;;;;;6.93;2.10;;;;;;;9.59;88.45;99659.72;5103432;28;20139;-53
2023/03/26 14:29:51;;;;;;;5.18;2.13;;;;;;;9.58;90.08;99653.56;5113247;27;20344;-54
2023/03/26 14:32:45;;;;;;;9.35;3.90;;;;;;;9.23;87.79;99658.38;5103706;28;20046;-53
2023/03/26 14:35:30;;;;;;;6.90;2.00;;;;;;;9.09;88.01;99656.44;5113654;28;20052;-52
2023/03/26 14:38:37;;;;;;;6.38;1.98;;;;;;;9.00;89.38;99665.41;5115904;28;20124;-52
2023/03/26 14:41:23;;;;;;;6.95;1.92;;;;;;;9.21;89.97;99662.22;5108615;28;20118;-53
2023/03/26 14:44:30;;;;;;;5.82;2.08;;;;;;;9.37;89.92;99674.56;5110670;28;20783;-50
2023/03/26 14:47:12;;;;;;;8.50;2.20;;;;;;;9.40;87.02;99667.09;5093798;28;20042;-53
2023/03/26 14:50:19;;;;;;;7.57;2.78;;;;;;;9.30;86.01;99673.59;5102558;28;20142;-52
2023/03/26 14:52:48;;;;;;;10.25;3.55;;;;;;;9.06;87.24;99662.09;5089476;28;20023;-52
2023/03/26 14:59:02;;;;;;;7.35;2.70;;;;;;;9.06;86.93;99683.28;5111683;27;20887;-50
2023/03/26 15:02:08;;;;;;;10.25;4.03;;;;;;;9.12;85.67;99687.88;5080767;28;20102;-51
2023/03/26 15:05:12;;;;;;;7.95;2.72;;;;;;;9.38;87.02;99687.59;5091466;28;20076;-51
2023/03/26 15:10:24;;;;;;;8.82;3.40;;;;;;;9.36;84.60;99700.19;5014808;28;20389;-52
2023/03/26 15:15:58;;;;;;;8.40;3.17;;;;;;;9.15;85.92;99700.75;5106896;27;20392;-51
2023/03/26 15:22:11;;;;;;;11.60;4.50;;;;;;;8.93;86.45;99707.59;5096140;27;20418;-53
2023/03/26 15:25:13;;;;;;;8.98;3.97;;;;;;;8.83;87.00;99714.88;5117274;28;20044;-52
2023/03/26 15:28:20;;;;;;;7.45;2.85;;;;;;;8.81;86.67;99722.97;5114127;28;20385;-53
2023/03/26 15:31:09;;;;;;;11.10;4.80;;;;;;;8.78;87.85;99733.06;5090181;27;20130;-54
2023/03/26 15:33:59;;;;;;;8.00;3.20;;;;;;;8.64;88.19;99737.19;5097116;28;20396;-53
2023/03/26 15:36:55;;;;;;;8.82;3.55;;;;;;;8.67;90.44;99736.06;5105497;28;20044;-54
2023/03/26 15:42:36;;;;;;;9.88;3.70;;;;;;;8.72;90.09;99747.78;5106050;27;20424;-54
2023/03/26 15:48:20;;;;;;;7.75;3.10;;;;;;;8.80;91.07;99749.59;5060184;27;20746;-54
2023/03/26 15:51:18;;;;;;;11.55;3.60;;;;;;;8.66;90.80;99759.03;5065811;28;20041;-51
2023/03/26 15:53:58;;;;;;;12.48;4.32;;;;;;;8.42;90.97;99752.75;5072575;28;20037;-52
2023/03/26 15:56:41;;;;;;;9.48;3.80;;;;;;;8.33;93.79;99768.72;5073342;28;20521;-53
2023/03/26 15:59:28;;;;;;;10.70;3.67;;;;;;;8.42;95.01;99765.13;5066354;28;20033;-52
2023/03/26 16:05:01;;;;;;;11.32;4.55;;;;;;;8.26;97.74;99779.94;5118507;27;20117;-51
2023/03/26 16:07:51;;;;;;;11.40;4.80;;;;;;;8.18;100.00;99779.09;5095179;27;20504;-49
2023/03/26 16:10:39;;;;;;;12.55;4.40;;;;;;;8.17;100.00;99788.84;5113347;28;20480;-52
2023/03/26 16:13:23;;;;;;;9.90;4.35;;;;;;;8.10;100.00;99793.13;5106157;28;20055;-53
2023/03/26 16:16:19;;;;;;;10.00;4.20;;;;;;;8.20;100.00;99800.88;5110448;28;20705;-52
2023/03/26 16:18:57;;;;;;;11.38;4.53;;;;;;;8.20;100.00;99795.59;5083634;28;20056;-53
2023/03/26 16:26:58;;;;;;;12.18;4.22;;;;;;;8.15;100.00;99805.81;5119248;27;20362;-54
2023/03/26 16:29:27;;;;;;;12.82;3.85;;;;;;;8.07;100.00;99817.19;5114982;28;20059;-53
2023/03/26 16:32:27;;;;;;;11.68;3.70;;;;;;;8.16;100.00;99825.97;5122610;27;20031;-54
2023/03/26 16:35:23;;;;;;;10.27;3.83;;;;;;;8.22;100.00;99831.47;5088582;28;20051;-54
2023/03/26 16:38:13;;;;;;;11.77;4.30;;;;;;;8.24;100.00;99834.75;5117377;28;20096;-54
2023/03/26 16:41:16;;;;;;;11.07;3.72;;;;;;;8.27;100.00;99839.72;5112653;28;20043;-51
2023/03/26 16:44:01;;;;;;;10.95;4.30;;;;;;;8.29;100.00;99849.31;5087230;28;20708;-54
2023/03/26 16:46:53;;;;;;;10.05;3.88;;;;;;;8.35;100.00;99849.50;5115474;27;20075;-52
2023/03/26 16:49:49;;;;;;;9.57;4.25;;;;;;;8.06;100.00;99860.47;5092776;28;20476;-54
2023/03/26 16:52:44;;;;;;;17.40;5.43;;;;;;;7.87;100.00;99862.34;5097147;28;20063;-54
2023/03/26 16:58:14;;;;;;;17.13;6.78;;;;;;;7.59;100.00;99876.72;5118058;27;20381;-53
2023/03/26 17:00:47;;;;;;;22.30;8.35;;;;;;;7.79;100.00;99887.91;5100672;28;20047;-52
2023/03/26 17:06:55;;;;;;;38.17;9.05;;;;;;;7.63;100.00;99913.19;5105887;27;20365;-54
2023/03/26 17:09:33;;;;;;;32.90;8.15;;;;;;;7.57;100.00;99913.03;5090354;28;20063;-51
2023/03/26 17:12:08;;;;;;;32.28;9.45;;;;;;;7.65;100.00;99921.78;5100272;27;20078;-53
2023/03/26 17:15:04;;;;;;;25.98;8.63;;;;;;;7.69;100.00;99927.59;5108949;28;20039;-54
2023/03/26 17:18:11;;;;;;;31.67;8.80;;;;;;;7.62;100.00;99935.31;5113368;27;20040;-54
2023/03/26 17:20:49;;;;;;;30.80;7.22;;;;;;;7.55;100.00;99944.00;5113383;28;20461;-51
2023/03/26 17:23:29;;;;;;;33.75;7.70;;;;;;;7.48;100.00;99949.06;5101244;27;20047;-54
2023/03/26 17:26:14;;;;;;;32.92;7.13;;;;;;;7.47;100.00;99958.78;5093056;27;20032;-54
2023/03/26 17:31:56;;;;;;;31.13;7.15;;;;;;;7.43;100.00;99970.63;5106441;27;20129;-53
2023/03/26 17:40:11;;;;;;;28.63;6.30;;;;;;;7.29;100.00;99985.22;5127990;27;20201;-52
2023/03/26 17:43:00;;;;;;;27.00;6.20;;;;;;;7.30;99.88;99994.75;5092645;27;20048;-54
2023/03/26 17:45:32;;;;;;;29.02;6.97;;;;;;;7.29;99.84;99997.53;5093173;28;20043;-53
2023/03/26 17:48:11;;;;;;;24.13;6.38;;;;;;;7.33;100.00;100001.56;5117128;27;20043;-52
2023/03/26 17:50:59;;;;;;;29.65;6.30;;;;;;;7.27;99.06;100002.97;5125100;28;20084;-52
2023/03/26 17:53:30;;;;;;;26.73;7.47;;;;;;;7.27;99.00;100013.53;5091213;27;20841;-51
2023/03/26 17:56:02;;;;;;;33.55;7.15;;;;;;;7.28;99.60;100017.00;5123826;28;20040;-50
2023/03/26 17:58:36;;;;;;;33.90;7.78;;;;;;;7.30;98.92;100023.78;5112357;27;20032;-52
2023/03/26 18:01:16;;;;;;;27.75;6.80;;;;;;;7.27;99.82;100017.97;5116021;28;20485;-52
2023/03/26 18:03:49;;;;;;;24.35;7.70;;;;;;;7.24;99.29;100037.59;5095231;28;20093;-53
2023/03/26 18:06:36;;;;;;;;;;;;;;;7.23;97.67;100041.19;5108366;27;20046;-50
2023/03/26 18:12:26;;;;;;;32.75;6.65;;;;;;;7.25;95.03;100057.69;5115421;27;20399;-53
2023/03/26 18:15:33;;;;;;;32.22;6.50;;;;;;;7.25;95.38;100062.97;5093040;28;20120;-53
2023/03/26 18:18:13;;;;;;;25.95;6.15;;;;;;;7.27;94.49;100065.47;5116419;28;20069;-52
2023/03/26 18:20:45;;;;;;;22.17;5.88;;;;;;;7.20;94.56;100067.03;5095327;28;20051;-51
2023/03/26 18:23:33;;;;;;;35.45;5.95;;;;;;;7.21;91.90;100074.00;5097343;28;20080;-50
2023/03/26 18:26:22;;;;;;;25.10;5.97;;;;;;;7.15;91.60;100087.75;5098024;28;20051;-52
2023/03/26 18:28:53;;;;;;;23.88;5.07;;;;;;;7.06;88.92;100084.22;5118058;28;20052;-50
2023/03/26 18:31:23;;;;;;;;;;;;;;;7.08;89.95;100092.81;5113712;28;20116;-50
2023/03/26 18:33:55;;;;;;;18.52;5.22;;;;;;;7.05;89.16;100101.00;5105658;28;19967;-53
2023/03/26 18:36:27;;;;;;;21.42;4.38;;;;;;;7.04;88.28;100107.25;5087076;28;20168;-52
2023/03/26 18:38:57;;;;;;;;;;;;;;;7.09;88.42;100112.91;5113901;27;20048;-53
2023/03/26 18:41:30;;;;;;;25.50;4.38;;;;;;;6.98;86.50;100127.13;5108410;28;19920;-54
2023/03/26 18:44:03;;;;;;;25.00;4.65;;;;;;;6.96;85.53;100128.25;5084268;28;20051;-52
2023/03/26 18:46:31;;;;;;;21.55;4.63;;;;;;;6.91;86.18;100140.06;5098338;27;20040;-53
2023/03/26 18:49:01;;;;;;;18.98;4.13;;;;;;;6.94;85.29;100146.03;5113479;28;20048;-53
2023/03/26 18:51:32;;;;;;;21.85;4.45;;;;;;;6.99;85.46;100152.53;5087326;28;20044;-54
2023/03/26 18:54:08;;;;;;;23.83;4.70;;;;;;;6.90;85.07;100150.75;5111832;27;20422;-54
2023/03/26 18:56:53;;;;;;;26.77;4.55;;;;;;;6.92;85.93;100154.91;5109081;28;20506;-54
2023/03/26 18:59:31;;;;;;;24.05;4.68;;;;;;;6.91;85.52;100169.09;5089749;28;20174;-54
2023/03/26 19:02:02;;;;;;;20.45;4.13;;;;;;;6.86;83.70;100167.84;5113034;28;20405;-53
2023/03/26 19:04:32;;;;;;;23.02;4.65;;;;;;;6.87;83.00;100172.97;5094481;27;20423;-53
2023/03/26 19:07:00;;;;;;;21.88;4.53;;;;;;;6.75;83.25;100182.03;5117400;28;20070;-53
2023/03/26 19:09:28;;;;;;;24.80;4.35;;;;;;;6.78;82.03;100175.63;5104708;27;20488;-52
2023/03/26 19:12:08;;;;;;;26.52;4.05;;;;;;;6.74;80.67;100180.34;5117151;27;20044;-53
2023/03/26 19:14:55;;;;;;;23.73;4.05;;;;;;;6.68;81.18;100202.84;5094013;27;20058;-51
2023/03/26 19:17:30;;;;;;;19.35;3.67;;;;;;;6.67;79.84;100193.28;5116349;28;20036;-51
2023/03/26 19:19:57;;;;;;;28.98;4.32;;;;;;;6.63;79.94;100204.25;5076168;28;20091;-52
2023/03/26 19:22:25;;;;;;;21.92;3.55;;;;;;;6.67;78.81;100201.19;5091150;27;20051;-53
2023/03/26 19:24:58;;;;;;;19.42;3.50;;;;;;;6.68;76.42;100207.31;5095333;28;20046;-53
2023/03/26 19:27:25;;;;;;;18.70;3.67;;;;;;;6.59;76.20;100208.16;5086826;28;20076;-52
2023/03/26 19:29:52;;;;;;;19.98;4.55;;;;;;;6.53;75.78;100220.91;5094711;28;20047;-54
2023/03/26 19:32:30;;;;;;;22.52;3.80;;;;;;;6.57;76.13;100226.75;5078899;28;20068;-52
2023/03/26 19:34:59;;;;;;;21.92;3.67;;;;;;;6.57;76.40;100225.88;5106425;28;20442;-51
2023/03/26 19:37:29;;;;;;;16.77;3.17;;;;;;;6.59;74.82;100237.16;5081522;28;20059;-53
2023/03/26 19:40:13;;;;;;;22.90;3.70;;;;;;;6.57;75.31;100246.97;5101194;28;20086;-53
2023/03/26 19:42:41;;;;;;;28.40;4.03;;;;;;;6.54;74.53;100243.63;5093522;28;20468;-53
2023/03/26 19:45:21;;;;;;;21.65;4.10;;;;;;;6.52;73.85;100248.22;5107904;28;20048;-52
2023/03/26 19:47:49;;;;;;;18.95;3.70;;;;;;;6.59;74.43;100255.59;5084018;28;20134;-51
2023/03/26 19:50:28;;;;;;;22.33;3.53;;;;;;;6.50;75.93;100255.44;5104022;28;20183;-52
2023/03/26 19:53:16;;;;;;;23.25;3.47;;;;;;;6.54;74.79;100261.28;5094540;28;20031;-51
2023/03/26 19:55:56;;;;;;;22.25;3.13;;;;;;;6.51;73.94;100279.97;5084382;28;20056;-52
2023/03/26 19:58:25;;;;;;;18.02;3.42;;;;;;;6.48;74.71;100270.56;5096509;28;20127;-53
2023/03/26 20:00:52;;;;;;;21.48;3.97;;;;;;;6.44;75.53;100277.09;5080014;28;20056;-52
2023/03/26 20:03:29;;;;;;;19.00;3.88;;;;;;;6.48;76.11;100286.38;5080724;28;20066;-54
2023/03/26 20:05:56;;;;;;;16.80;3.20;;;;;;;6.45;76.63;100277.91;5083313;28;20071;-54
2023/03/26 20:08:25;;;;;;;32.80;4.20;;;;;;;6.41;76.99;100290.53;5078907;28;20040;-61
2023/03/26 20:10:54;;;;;;;22.30;3.63;;;;;;;6.38;76.58;100306.59;5043334;28;20513;-59
2023/03/26 20:13:22;;;;;;;23.92;3.88;;;;;;;6.33;74.76;100303.53;5096373;28;20043;-57
2023/03/26 20:16:09;;;;;;;22.77;3.67;;;;;;;6.31;74.17;100316.03;5095352;28;20381;-57
2023/03/26 20:18:37;;;;;;;21.52;3.30;;;;;;;6.30;73.27;100320.47;5110740;28;20047;-57
2023/03/26 20:21:09;;;;;;;16.33;4.20;;;;;;;6.22;75.35;100325.59;5106137;28;20179;-57
2023/03/26 20:23:38;;;;;;;19.80;3.30;;;;;;;6.27;73.55;100333.91;5114239;28;20047;-57
2023/03/26 20:26:05;;;;;;;14.63;2.80;;;;;;;6.18;73.30;100339.16;5109891;28;20039;-57
2023/03/26 20:28:31;;;;;;;17.83;3.03;;;;;;;6.08;73.19;100337.34;5115174;27;20050;-57
2023/03/26 20:30:58;;;;;;;21.75;2.67;;;;;;;6.11;73.74;100346.75;5091523;28;20129;-57
2023/03/26 20:33:27;;;;;;;24.80;4.03;;;;;;;6.08;73.28;100352.31;5093708;28;20093;-57
2023/03/26 20:35:55;;;;;;;16.95;3.30;;;;;;;6.02;72.83;100348.44;5089760;28;20097;-57
2023/03/26 20:38:25;;;;;;;17.00;3.00;;;;;;;6.03;72.47;100355.34;5087805;28;20036;-57
2023/03/26 20:40:56;;;;;;;20.73;2.67;;;;;;;6.04;72.63;100361.44;5073921;28;20127;-58
2023/03/26 20:43:24;;;;;;;33.05;2.90;;;;;;;5.94;71.83;100356.94;5068851;28;20052;-57
2023/03/26 20:45:51;;;;;;;23.23;3.03;;;;;;;6.02;71.69;100381.81;5073916;28;20044;-58
2023/03/26 20:48:18;;;;;;;22.25;2.92;;;;;;;5.91;71.82;100375.66;5069046;28;20066;-57
2023/03/26 20:50:45;;;;;;;22.33;3.00;;;;;;;5.89;71.08;100382.00;5073047;28;20050;-57
2023/03/26 20:53:16;;;;;;;12.88;2.30;;;;;;;5.86;69.33;100380.47;5064707;28;20048;-57
2023/03/26 20:55:45;;;;;;;21.55;2.30;;;;;;;5.81;68.89;100397.63;5072946;28;20041;-57
2023/03/26 20:58:14;;;;;;;15.98;2.33;;;;;;;5.70;68.17;100394.13;5088811;28;20056;-57
2023/03/26 21:00:43;;;;;;;15.98;2.45;;;;;;;5.72;68.71;100400.06;5068050;28;20040;-57
2023/03/26 21:03:13;;;;;;;13.13;2.60;;;;;;;5.67;69.05;100402.25;5072911;28;20436;-57
2023/03/26 21:05:42;;;;;;;13.30;2.17;;;;;;;5.65;68.37;100408.63;5073039;28;20044;-57
2023/03/26 21:08:18;;;;;;;17.55;2.67;;;;;;;5.55;68.29;100411.22;5112313;28;20130;-57
2023/03/26 21:10:46;;;;;;;22.30;2.55;;;;;;;5.52;67.85;100425.44;5105057;28;20048;-57
2023/03/26 21:13:39;;;;;;;17.90;2.50;;;;;;;5.49;67.57;100444.13;5113112;28;20458;-57
2023/03/26 21:16:06;;;;;;;17.85;2.50;;;;;;;5.52;68.43;100440.41;5108460;28;20400;-57
2023/03/26 21:18:34;;;;;;;16.67;2.97;;;;;;;5.52;67.06;100443.88;5114513;28;20500;-57
2023/03/26 21:21:26;;;;;;;17.73;2.35;;;;;;;5.54;66.98;100454.28;5109072;28;20505;-57
2023/03/26 21:24:17;;;;;;;15.35;2.42;;;;;;;5.49;68.75;100459.06;5113248;28;20056;-57
2023/03/26 21:26:53;;;;;;;12.25;2.10;;;;;;;5.50;68.38;100458.97;5103561;28;20058;-58
2023/03/26 21:29:20;;;;;;;15.95;2.38;;;;;;;5.48;67.55;100468.78;5113940;27;20158;-58
2023/03/26 21:31:46;;;;;;;15.95;2.33;;;;;;;5.41;67.71;100470.25;5108485;28;20462;-57
2023/03/26 21:34:13;;;;;;;16.95;2.70;;;;;;;5.31;67.86;100480.72;5114533;27;20059;-57
2023/03/26 21:36:40;;;;;;;14.20;2.10;;;;;;;5.23;68.21;100483.13;5108831;28;20493;-57
2023/03/26 21:39:09;;;;;;;14.60;2.25;;;;;;;5.27;68.39;100497.69;5104150;28;20131;-57
2023/03/26 21:41:43;;;;;;;18.23;2.15;;;;;;;5.26;70.81;100500.47;5088119;28;20071;-57
2023/03/26 21:44:13;;;;;;;16.38;2.42;;;;;;;5.21;69.29;100503.44;5089085;28;20047;-57
2023/03/26 21:46:42;;;;;;;16.45;2.80;;;;;;;5.22;69.10;100513.03;5091831;28;20409;-57
2023/03/26 21:49:09;;;;;;;21.83;2.97;;;;;;;5.18;68.46;100516.84;5088829;28;20093;-57
2023/03/26 21:51:37;;;;;;;17.90;3.03;;;;;;;5.16;69.90;100516.97;5091547;28;20071;-57
2023/03/26 21:54:15;;;;;;;19.25;2.50;;;;;;;5.09;68.20;100523.66;5088042;28;20443;-57
2023/03/26 21:56:57;;;;;;;14.43;2.40;;;;;;;5.12;68.65;100528.69;5091252;28;20044;-57
2023/03/26 21:59:38;;;;;;;22.92;3.13;;;;;;;5.07;71.17;100528.22;5083992;28;20054;-57
2023/03/26 22:02:20;;;;;;;19.20;3.08;;;;;;;5.14;70.75;100541.72;5092655;28;20050;-57
2023/03/26 22:04:53;;;;;;;25.58;2.88;;;;;;;5.05;70.38;100551.19;5087362;28;20047;-57
2023/03/26 22:07:31;;;;;;;18.08;2.40;;;;;;;5.08;68.09;100552.75;5061249;28;20131;-57
2023/03/26 22:09:58;;;;;;;17.80;2.15;;;;;;;4.97;68.61;100572.00;5063428;28;20082;-57
2023/03/26 22:12:25;;;;;;;29.55;2.55;;;;;;;4.88;68.45;100568.31;5091950;28;20448;-57
2023/03/26 22:14:52;;;;;;;20.00;2.63;;;;;;;4.87;68.14;100577.13;5087287;28;20063;-57
2023/03/26 22:17:18;;;;;;;17.58;2.90;;;;;;;4.75;67.98;100588.63;5089271;28;20075;-57
2023/03/26 22:19:46;;;;;;;23.13;2.50;;;;;;;4.67;68.46;100581.31;5092920;28;20413;-56
2023/03/26 22:22:13;;;;;;;20.70;2.60;;;;;;;4.57;68.73;100602.25;5087287;28;20089;-57
2023/03/26 22:24:40;;;;;;;29.20;3.30;;;;;;;4.50;69.06;100602.84;5093013;28;20036;-58
2023/03/26 22:27:07;;;;;;;24.85;2.60;;;;;;;4.47;70.08;100608.31;5087048;28;20558;-57
2023/03/26 22:29:34;;;;;;;28.30;3.08;;;;;;;4.40;70.20;100607.94;5091957;28;20059;-57
2023/03/26 22:32:02;;;;;;;19.33;2.65;;;;;;;4.41;70.30;100609.63;5084106;28;20130;-57
2023/03/26 22:34:30;;;;;;;21.73;2.90;;;;;;;4.39;71.40;100622.03;5092606;28;20109;-57
2023/03/26 22:36:57;;;;;;;18.48;2.83;;;;;;;4.35;70.34;100623.25;5087259;28;20301;-57
2023/03/26 22:39:24;;;;;;;17.13;3.75;;;;;;;4.32;71.04;100632.16;5081477;28;20422;-57
2023/03/26 22:41:50;;;;;;;30.65;2.97;;;;;;;4.35;70.78;100637.19;5067940;28;20128;-57
2023/03/26 22:44:17;;;;;;;29.48;3.03;;;;;;;4.26;71.32;100645.78;5072621;28;20477;-57
2023/03/26 22:46:47;;;;;;;22.25;2.65;;;;;;;4.18;71.49;100669.13;5067054;28;20150;-57
2023/03/26 22:49:14;;;;;;;27.95;3.00;;;;;;;4.13;71.59;100664.25;5068923;28;20044;-57
2023/03/26 22:51:41;;;;;;;25.08;3.05;;;;;;;4.22;70.81;100665.31;5072346;28;20064;-57
2023/03/26 22:54:08;;;;;;;27.15;2.90;;;;;;;4.08;71.30;100671.63;5066751;28;20045;-57
2023/03/26 22:56:36;;;;;;;28.58;3.15;;;;;;;4.04;71.30;100668.38;5071780;28;20047;-57
2023/03/26 22:59:03;;;;;;;26.27;3.30;;;;;;;4.05;71.59;100679.72;5071438;28;20098;-57
2023/03/26 23:01:31;;;;;;;23.38;3.20;;;;;;;3.99;72.46;100670.50;5075877;28;20677;-56
2023/03/26 23:03:57;;;;;;;25.05;3.03;;;;;;;4.03;71.22;100679.00;5070112;28;20043;-57
2023/03/26 23:06:24;;;;;;;29.80;3.13;;;;;;;3.98;70.95;100688.97;5072798;28;20044;-57
2023/03/26 23:08:53;;;;;;;26.77;3.00;;;;;;;4.02;71.13;100693.91;5088524;28;20519;-57
2023/03/26 23:11:22;;;;;;;23.27;3.13;;;;;;;4.04;71.30;100701.69;5090736;28;20094;-57
2023/03/26 23:13:50;;;;;;;27.08;3.35;;;;;;;4.04;71.67;100712.19;5095796;28;20044;-57